Time;durP1;ratioP1;P1;durP2;ratioP2;P2;SDS_P1;SDS_P2;PMS_P1;PMS_P2;Temp;Humidity;BMP_temperature;BMP_pressure;BME280_temperature;BME280_humidity;BME280_pressure;Samples;Min_cycle;Max_cycle;Signal;HPM_P1;HPM_P2
2021/09/21 00:02:22;;;;;;;4.37;3.97;;;8.90;99.90;;;;;;5042127;28;20178;-78
2021/09/21 00:04:48;;;;;;;4.73;4.33;;;8.80;99.90;;;;;;5041596;28;20174;-78
2021/09/21 00:07:14;;;;;;;5.37;4.10;;;8.60;99.90;;;;;;5040221;28;20188;-78
2021/09/21 00:09:39;;;;;;;4.27;3.87;;;8.60;99.90;;;;;;5039318;28;20523;-78
2021/09/21 00:12:05;;;;;;;3.40;3.20;;;8.50;99.90;;;;;;5041259;28;20185;-78
2021/09/21 00:14:31;;;;;;;4.53;3.60;;;8.60;99.90;;;;;;5040346;28;20203;-78
2021/09/21 00:16:58;;;;;;;3.80;3.57;;;8.50;99.90;;;;;;5040843;28;20178;-78
2021/09/21 00:19:24;;;;;;;4.47;4.07;;;8.50;99.90;;;;;;5041891;28;20173;-78
2021/09/21 00:21:50;;;;;;;3.80;3.50;;;8.40;99.90;;;;;;5039816;28;20426;-78
2021/09/21 00:24:15;;;;;;;3.50;3.20;;;8.40;99.90;;;;;;5040685;28;20440;-78
2021/09/21 00:26:41;;;;;;;4.50;3.70;;;8.40;99.90;;;;;;5040249;28;20526;-78
2021/09/21 00:29:08;;;;;;;4.73;3.80;;;8.40;99.90;;;;;;5039829;28;20587;-78
2021/09/21 00:31:38;;;;;;;4.23;3.93;;;8.20;99.90;;;;;;5041840;28;20217;-78
2021/09/21 00:34:15;;;;;;;3.13;2.83;;;8.20;99.90;;;;;;5041063;28;20514;-78
2021/09/21 00:36:41;;;;;;;3.60;3.30;;;8.20;99.90;;;;;;5040725;28;20431;-78
2021/09/21 00:39:10;;;;;;;4.03;3.73;;;8.00;99.90;;;;;;5039721;28;20431;-78
2021/09/21 00:41:37;;;;;;;3.70;3.40;;;8.00;99.90;;;;;;5041333;28;20935;-78
2021/09/21 00:44:04;;;;;;;4.63;3.90;;;8.10;99.90;;;;;;5041816;28;20450;-78
2021/09/21 00:46:30;;;;;;;7.20;3.90;;;8.10;99.90;;;;;;5040184;28;20458;-78
2021/09/21 00:48:55;;;;;;;4.20;3.80;;;8.00;99.90;;;;;;5041346;28;20901;-78
2021/09/21 00:51:23;;;;;;;4.03;3.73;;;8.00;99.90;;;;;;5039059;28;20181;-78
2021/09/21 00:53:49;;;;;;;3.60;3.30;;;8.00;99.90;;;;;;5039835;28;20547;-78
2021/09/21 00:56:15;;;;;;;9.60;4.00;;;7.90;99.90;;;;;;5039537;28;20442;-78
2021/09/21 00:58:41;;;;;;;4.83;4.40;;;7.90;99.90;;;;;;5040680;28;20432;-78
2021/09/21 01:01:06;;;;;;;4.27;3.97;;;7.90;99.90;;;;;;5041456;28;20186;-78
2021/09/21 01:03:33;;;;;;;4.50;3.43;;;7.80;99.90;;;;;;5044517;28;20256;-78
2021/09/21 01:05:58;;;;;;;3.03;2.83;;;7.90;99.90;;;;;;5043381;28;20192;-78
2021/09/21 01:08:28;;;;;;;5.70;4.00;;;7.90;99.90;;;;;;5046081;28;20896;-78
2021/09/21 01:10:54;;;;;;;4.60;4.23;;;8.00;99.90;;;;;;5044286;28;20173;-78
2021/09/21 01:13:19;;;;;;;5.23;4.00;;;7.90;99.90;;;;;;5046047;28;20517;-78
2021/09/21 01:15:45;;;;;;;4.50;4.10;;;7.90;99.90;;;;;;5045204;28;20178;-78
2021/09/21 01:18:11;;;;;;;6.33;4.43;;;8.00;99.90;;;;;;5043484;28;20184;-78
2021/09/21 01:20:36;;;;;;;4.17;3.87;;;8.10;99.90;;;;;;5045245;28;20174;-78
2021/09/21 01:23:03;;;;;;;6.10;4.50;;;8.10;99.90;;;;;;5044599;28;20192;-78
2021/09/21 01:25:31;;;;;;;4.17;3.83;;;8.10;99.90;;;;;;5042557;28;20166;-78
2021/09/21 01:27:57;;;;;;;5.00;4.10;;;8.20;99.90;;;;;;5042567;28;20473;-78
2021/09/21 01:30:23;;;;;;;6.10;4.60;;;8.20;99.90;;;;;;5044070;28;20464;-78
2021/09/21 01:32:48;;;;;;;4.80;4.40;;;8.20;99.90;;;;;;5042386;28;20714;-78
2021/09/21 01:35:15;;;;;;;4.77;4.37;;;8.20;99.90;;;;;;5044531;28;20630;-78
2021/09/21 01:37:43;;;;;;;4.63;4.20;;;8.20;99.90;;;;;;5042257;28;20208;-78
2021/09/21 01:40:10;;;;;;;5.30;4.30;;;8.30;99.90;;;;;;5042909;28;20475;-78
2021/09/21 01:42:47;;;;;;;4.63;4.20;;;8.30;99.90;;;;;;5044843;28;20440;-78
2021/09/21 01:45:15;;;;;;;4.67;4.17;;;8.30;99.90;;;;;;5043452;28;20446;-78
2021/09/21 01:47:41;;;;;;;6.30;4.50;;;8.40;99.90;;;;;;5043547;28;20530;-78
2021/09/21 01:50:20;;;;;;;6.00;4.57;;;8.50;99.90;;;;;;5041372;28;20432;-78
2021/09/21 01:52:57;;;;;;;4.53;4.13;;;8.50;99.90;;;;;;5043121;28;20419;-78
2021/09/21 02:01:05;;;;;;;4.23;3.93;;;8.60;99.90;;;;;;5043684;28;20918;-78
2021/09/21 02:03:31;;;;;;;6.33;4.40;;;8.60;99.90;;;;;;5042787;28;20523;-78
2021/09/21 02:05:56;;;;;;;4.77;4.23;;;8.50;99.90;;;;;;5043092;28;20173;-78
2021/09/21 02:08:22;;;;;;;4.57;4.07;;;8.60;99.90;;;;;;5043865;28;20268;-78
2021/09/21 02:10:48;;;;;;;5.73;4.13;;;8.50;99.90;;;;;;5043359;28;20182;-78
2021/09/21 02:13:14;;;;;;;7.27;4.73;;;8.60;99.90;;;;;;5043144;28;20693;-78
2021/09/21 02:15:40;;;;;;;7.20;4.63;;;8.70;99.90;;;;;;5042805;28;20514;-78
2021/09/21 02:18:07;;;;;;;5.30;4.17;;;8.80;99.90;;;;;;5041207;28;20525;-78
2021/09/21 02:20:33;;;;;;;4.23;3.97;;;8.80;99.90;;;;;;5043411;28;20428;-78
2021/09/21 02:22:58;;;;;;;5.03;4.53;;;8.80;99.90;;;;;;5042273;28;20451;-78
2021/09/21 02:25:24;;;;;;;5.67;4.90;;;8.80;99.90;;;;;;5042721;28;20718;-78
2021/09/21 02:27:50;;;;;;;5.37;4.87;;;8.80;99.90;;;;;;5042348;28;20608;-78
2021/09/21 02:30:16;;;;;;;4.53;4.10;;;8.90;99.90;;;;;;5042714;28;20170;-78
2021/09/21 02:32:41;;;;;;;4.47;4.07;;;8.80;99.90;;;;;;5044136;28;20611;-78
2021/09/21 02:35:07;;;;;;;4.17;3.87;;;8.80;99.90;;;;;;5043331;28;20213;-78
2021/09/21 02:37:33;;;;;;;16.13;5.00;;;8.90;99.90;;;;;;5040901;28;20182;-78
2021/09/21 02:40:00;;;;;;;5.30;4.80;;;8.80;99.90;;;;;;5042577;28;20725;-78
2021/09/21 02:42:26;;;;;;;5.20;4.70;;;8.90;99.90;;;;;;5042755;28;20192;-78
2021/09/21 02:44:52;;;;;;;5.00;4.60;;;8.90;99.90;;;;;;5042197;28;20448;-78
2021/09/21 02:47:18;;;;;;;5.47;4.80;;;8.80;99.90;;;;;;5042320;28;20598;-78
2021/09/21 02:49:43;;;;;;;5.17;4.63;;;8.80;99.90;;;;;;5042998;28;20435;-78
2021/09/21 02:52:09;;;;;;;4.43;4.07;;;8.80;99.90;;;;;;5041181;28;20859;-78
2021/09/21 02:54:35;;;;;;;5.47;4.90;;;8.80;99.90;;;;;;5041810;28;20220;-78
2021/09/21 02:57:00;;;;;;;5.70;5.20;;;8.90;99.90;;;;;;5041319;28;20181;-78
2021/09/21 02:59:26;;;;;;;4.60;4.27;;;8.80;99.90;;;;;;5042043;28;20181;-78
2021/09/21 03:01:52;;;;;;;4.70;4.30;;;8.80;99.90;;;;;;5042065;28;20501;-78
2021/09/21 03:04:25;;;;;;;14.77;5.30;;;8.90;99.90;;;;;;5043888;28;20178;-78
2021/09/21 03:06:58;;;;;;;4.83;4.43;;;8.90;99.90;;;;;;5041940;28;20435;-80
2021/09/21 03:12:55;;;;;;;6.17;5.47;;;8.90;99.90;;;;;;5042233;28;20464;-78
2021/09/21 03:17:26;;;;;;;6.90;5.13;;;9.00;99.90;;;;;;5040395;28;20458;-78
2021/09/21 03:19:57;;;;;;;7.30;6.03;;;9.10;99.90;;;;;;5041666;28;20522;-78
2021/09/21 03:22:23;;;;;;;5.40;4.63;;;9.10;99.90;;;;;;5041451;28;20424;-78
2021/09/21 03:24:51;;;;;;;5.47;4.70;;;9.10;99.90;;;;;;5042094;28;20510;-78
2021/09/21 03:27:17;;;;;;;6.47;5.57;;;9.10;99.90;;;;;;5040987;28;20431;-78
2021/09/21 03:29:43;;;;;;;8.53;5.67;;;9.10;99.90;;;;;;5041962;28;20490;-78
2021/09/21 03:32:09;;;;;;;5.97;5.37;;;9.20;99.90;;;;;;5042016;28;20735;-78
2021/09/21 03:34:37;;;;;;;8.70;5.53;;;9.30;99.90;;;;;;5041413;28;20825;-78
2021/09/21 03:37:03;;;;;;;6.80;6.03;;;9.30;99.90;;;;;;5040920;28;20425;-78
2021/09/21 03:39:29;;;;;;;5.87;5.07;;;9.30;99.90;;;;;;5040914;28;20532;-78
2021/09/21 03:41:55;;;;;;;8.53;5.90;;;9.20;99.90;;;;;;5041743;28;20917;-78
2021/09/21 03:44:22;;;;;;;5.57;5.07;;;9.10;99.90;;;;;;5040686;28;20462;-78
2021/09/21 03:46:48;;;;;;;7.87;6.37;;;9.20;99.90;;;;;;5039180;28;20177;-78
2021/09/21 03:49:14;;;;;;;8.23;6.20;;;9.20;99.90;;;;;;5040778;28;20494;-78
2021/09/21 03:51:40;;;;;;;8.20;5.40;;;9.20;99.90;;;;;;5040435;28;20185;-78
2021/09/21 03:54:09;;;;;;;9.47;6.37;;;9.30;99.90;;;;;;5040855;28;20634;-78
2021/09/21 03:56:35;;;;;;;9.27;5.87;;;9.30;99.90;;;;;;5039971;28;20180;-78
2021/09/21 03:59:01;;;;;;;8.50;7.63;;;9.40;99.90;;;;;;5042156;28;20862;-78
2021/09/21 04:01:26;;;;;;;8.40;6.70;;;9.40;99.90;;;;;;5041052;28;20432;-78
2021/09/21 04:03:52;;;;;;;9.03;6.00;;;9.40;99.90;;;;;;5041246;28;20256;-78
2021/09/21 04:06:18;;;;;;;6.43;5.83;;;9.50;99.90;;;;;;5041706;28;20765;-78
2021/09/21 04:08:43;;;;;;;6.30;5.70;;;9.40;99.90;;;;;;5039025;28;20182;-78
2021/09/21 04:11:09;;;;;;;7.23;5.90;;;9.40;99.90;;;;;;5039233;28;20192;-78
2021/09/21 04:13:35;;;;;;;8.13;6.90;;;9.40;99.90;;;;;;5041099;28;20297;-78
2021/09/21 04:16:01;;;;;;;8.63;6.27;;;9.40;99.90;;;;;;5040432;28;20177;-78
2021/09/21 04:18:27;;;;;;;8.10;6.50;;;9.50;99.90;;;;;;5040832;28;20196;-78
2021/09/21 04:20:52;;;;;;;6.83;6.20;;;9.60;99.90;;;;;;5041392;28;20862;-78
2021/09/21 04:23:18;;;;;;;7.50;6.80;;;9.50;99.90;;;;;;5040104;28;20281;-78
2021/09/21 04:25:43;;;;;;;7.53;5.63;;;9.50;99.90;;;;;;5039976;28;20630;-78
2021/09/21 04:28:09;;;;;;;6.43;5.83;;;9.50;99.90;;;;;;5041058;28;20563;-78
2021/09/21 04:30:35;;;;;;;7.67;6.23;;;9.50;99.90;;;;;;5040032;28;20619;-78
2021/09/21 04:33:01;;;;;;;9.13;6.70;;;9.40;99.90;;;;;;5039910;28;20193;-78
2021/09/21 04:35:26;;;;;;;8.20;7.07;;;9.50;99.90;;;;;;5041168;28;20181;-78
2021/09/21 04:37:52;;;;;;;7.00;6.30;;;9.50;99.90;;;;;;5042140;28;20234;-78
2021/09/21 04:40:19;;;;;;;7.97;6.30;;;9.60;99.90;;;;;;5043433;28;20264;-78
2021/09/21 04:42:44;;;;;;;7.80;6.17;;;9.60;99.90;;;;;;5045363;28;20181;-78
2021/09/21 04:45:11;;;;;;;7.27;5.70;;;9.50;99.90;;;;;;5045762;28;20517;-78
2021/09/21 04:47:36;;;;;;;8.53;6.00;;;9.50;99.90;;;;;;5049682;28;20603;-78
2021/09/21 04:50:04;;;;;;;7.60;6.50;;;9.60;99.90;;;;;;5043737;28;20432;-78
2021/09/21 04:52:29;;;;;;;9.93;6.40;;;9.60;99.90;;;;;;5057773;28;20192;-78
2021/09/21 04:54:55;;;;;;;6.60;6.00;;;9.50;99.90;;;;;;5045787;28;20913;-78
2021/09/21 04:57:21;;;;;;;8.03;7.23;;;9.60;99.90;;;;;;5044501;28;20181;-78
2021/09/21 04:59:46;;;;;;;7.70;5.87;;;9.60;99.90;;;;;;5045502;28;20247;-78
2021/09/21 05:02:12;;;;;;;8.33;7.27;;;9.60;99.90;;;;;;5044083;28;20190;-78
2021/09/21 05:04:38;;;;;;;8.83;7.13;;;9.60;99.90;;;;;;5049462;28;20189;-78
2021/09/21 05:07:03;;;;;;;8.90;7.77;;;9.60;99.90;;;;;;5043649;28;20504;-78
2021/09/21 05:09:29;;;;;;;7.97;7.10;;;9.60;99.90;;;;;;5043248;28;20185;-78
2021/09/21 05:11:55;;;;;;;9.07;7.80;;;9.60;99.90;;;;;;5043526;28;20181;-78
2021/09/21 05:14:20;;;;;;;12.73;8.43;;;9.60;99.90;;;;;;5044920;28;20205;-78
2021/09/21 05:16:46;;;;;;;10.17;8.10;;;9.60;99.90;;;;;;5042793;28;20494;-78
2021/09/21 05:19:12;;;;;;;10.30;7.23;;;9.60;99.90;;;;;;5044753;28;21027;-79
2021/09/21 05:21:39;;;;;;;9.87;7.00;;;9.60;99.90;;;;;;5042983;28;20653;-79
2021/09/21 05:24:06;;;;;;;7.30;6.57;;;9.70;99.90;;;;;;5043418;28;20251;-79
2021/09/21 05:26:32;;;;;;;10.33;8.40;;;9.60;99.90;;;;;;5041304;28;20482;-80
2021/09/21 05:28:57;;;;;;;11.70;8.47;;;9.70;99.90;;;;;;5043101;28;20479;-79
2021/09/21 05:31:23;;;;;;;10.20;8.03;;;9.70;99.90;;;;;;5044210;28;20431;-79
2021/09/21 05:33:49;;;;;;;13.20;8.80;;;9.70;99.90;;;;;;5041799;28;20459;-79
2021/09/21 05:36:15;;;;;;;9.07;7.07;;;9.80;99.90;;;;;;5042510;28;20192;-79
2021/09/21 05:38:41;;;;;;;11.77;8.30;;;9.90;99.90;;;;;;5044474;28;20433;-79
2021/09/21 05:41:06;;;;;;;12.60;8.00;;;9.90;99.90;;;;;;5042456;28;20883;-79
2021/09/21 05:43:32;;;;;;;11.00;9.23;;;9.90;99.90;;;;;;5044684;28;20200;-79
2021/09/21 05:45:58;;;;;;;9.90;7.87;;;9.90;99.90;;;;;;5048404;28;20343;-78
2021/09/21 05:48:23;;;;;;;10.40;7.43;;;9.90;99.90;;;;;;5043855;28;20209;-78
2021/09/21 05:50:49;;;;;;;12.40;9.80;;;9.90;99.90;;;;;;5043518;28;20169;-78
2021/09/21 05:53:15;;;;;;;12.33;8.40;;;10.00;99.90;;;;;;5044046;28;20705;-78
2021/09/21 05:55:40;;;;;;;12.77;8.63;;;10.00;99.90;;;;;;5040794;28;20181;-79
2021/09/21 05:58:06;;;;;;;8.83;7.00;;;10.00;99.90;;;;;;5043569;28;20256;-79
2021/09/21 06:00:32;;;;;;;15.40;7.90;;;10.00;99.90;;;;;;5044157;28;20314;-79
2021/09/21 06:02:58;;;;;;;17.50;8.50;;;10.00;99.90;;;;;;5042524;28;20174;-79
2021/09/21 06:05:24;;;;;;;12.03;8.93;;;10.10;99.90;;;;;;5041335;28;20501;-79
2021/09/21 06:07:52;;;;;;;9.60;8.37;;;10.00;99.90;;;;;;5042616;28;20510;-79
2021/09/21 06:10:20;;;;;;;12.20;8.50;;;10.00;99.90;;;;;;5042987;28;20257;-79
2021/09/21 06:12:45;;;;;;;9.57;8.57;;;10.10;99.90;;;;;;5042696;28;20436;-78
2021/09/21 06:15:14;;;;;;;10.63;8.13;;;10.20;99.90;;;;;;5040785;28;20978;-79
2021/09/21 06:17:39;;;;;;;10.83;8.50;;;10.30;99.90;;;;;;5041840;28;20185;-79
2021/09/21 06:20:08;;;;;;;9.20;7.67;;;10.30;99.90;;;;;;5043036;28;20431;-79
2021/09/21 06:22:33;;;;;;;10.60;8.07;;;10.40;99.90;;;;;;5043761;28;20428;-78
2021/09/21 06:24:59;;;;;;;10.63;8.53;;;10.40;99.90;;;;;;5043914;28;20514;-78
2021/09/21 06:27:25;;;;;;;9.90;7.70;;;10.40;99.90;;;;;;5043680;28;20272;-78
2021/09/21 06:29:50;;;;;;;9.90;8.03;;;10.40;99.90;;;;;;5044334;28;20184;-79
2021/09/21 06:32:16;;;;;;;9.47;7.83;;;10.40;99.90;;;;;;5043483;28;20594;-78
2021/09/21 06:34:42;;;;;;;8.77;7.80;;;10.50;99.90;;;;;;5043596;28;20596;-79
2021/09/21 06:37:07;;;;;;;8.73;7.37;;;10.60;99.90;;;;;;5042329;28;20515;-77
2021/09/21 06:39:33;;;;;;;9.80;7.80;;;10.60;99.90;;;;;;5043469;28;20185;-78
2021/09/21 06:41:59;;;;;;;11.67;8.63;;;10.80;99.90;;;;;;5043080;28;20178;-78
2021/09/21 06:44:24;;;;;;;9.33;7.10;;;10.80;99.90;;;;;;5043350;28;20208;-78
2021/09/21 06:46:50;;;;;;;11.30;8.50;;;10.90;99.90;;;;;;5043486;28;20184;-78
2021/09/21 06:49:15;;;;;;;10.07;7.90;;;11.00;99.90;;;;;;5043096;28;20182;-78
2021/09/21 06:51:41;;;;;;;7.80;7.00;;;11.10;99.90;;;;;;5041550;28;20512;-78
2021/09/21 06:54:07;;;;;;;10.00;6.57;;;11.20;99.90;;;;;;5041483;28;20229;-79
2021/09/21 06:56:32;;;;;;;12.13;7.17;;;11.20;99.90;;;;;;5042154;28;20170;-78
2021/09/21 06:58:58;;;;;;;9.47;7.53;;;11.30;99.90;;;;;;5041758;28;20192;-78
2021/09/21 07:01:25;;;;;;;7.33;6.43;;;11.30;99.90;;;;;;5043643;28;20189;-78
2021/09/21 07:03:51;;;;;;;7.97;6.70;;;11.40;99.90;;;;;;5040808;28;20185;-78
2021/09/21 07:06:17;;;;;;;10.70;6.73;;;11.40;99.90;;;;;;5041093;28;20443;-78
2021/09/21 07:08:42;;;;;;;7.23;6.40;;;11.50;99.90;;;;;;5042623;28;20214;-78
2021/09/21 07:11:08;;;;;;;8.07;6.90;;;11.50;99.90;;;;;;5040566;28;20177;-78
2021/09/21 07:13:35;;;;;;;7.73;6.60;;;11.50;99.90;;;;;;5044211;28;20221;-78
2021/09/21 07:16:00;;;;;;;6.97;6.27;;;11.50;99.90;;;;;;5042062;28;20774;-78
2021/09/21 07:18:26;;;;;;;7.77;6.10;;;11.50;99.90;;;;;;5040762;28;20177;-78
2021/09/21 07:20:52;;;;;;;8.03;6.30;;;11.50;99.90;;;;;;5041527;28;20602;-78
2021/09/21 07:23:17;;;;;;;6.77;5.83;;;11.60;99.90;;;;;;5042419;28;20188;-78
2021/09/21 07:25:43;;;;;;;8.93;6.83;;;11.60;99.90;;;;;;5042817;28;20182;-78
2021/09/21 07:28:09;;;;;;;6.50;5.80;;;11.70;99.90;;;;;;5041823;28;20188;-78
2021/09/21 07:30:35;;;;;;;10.07;5.60;;;11.60;99.90;;;;;;5043513;28;20225;-78
2021/09/21 07:33:02;;;;;;;8.47;6.50;;;11.60;99.90;;;;;;5041929;28;20178;-78
2021/09/21 07:35:27;;;;;;;8.97;6.10;;;11.60;99.90;;;;;;5040527;28;20564;-78
2021/09/21 07:37:53;;;;;;;6.33;5.43;;;11.60;99.90;;;;;;5041244;28;20557;-78
2021/09/21 07:40:20;;;;;;;6.70;6.10;;;11.70;99.90;;;;;;5044479;28;20181;-76
2021/09/21 07:42:48;;;;;;;8.10;6.07;;;11.80;99.90;;;;;;5043588;28;20181;-77
2021/09/21 07:45:13;;;;;;;6.00;5.40;;;11.90;99.90;;;;;;5041218;28;20459;-76
2021/09/21 07:47:39;;;;;;;7.10;5.40;;;12.00;99.90;;;;;;5042726;28;20436;-77
2021/09/21 07:50:07;;;;;;;7.13;5.70;;;12.00;99.90;;;;;;5043543;28;20177;-77
2021/09/21 07:52:33;;;;;;;6.80;5.80;;;12.00;99.90;;;;;;5042864;28;20737;-77
2021/09/21 07:54:59;;;;;;;5.57;5.07;;;12.00;99.90;;;;;;5042103;28;20534;-77
2021/09/21 07:57:25;;;;;;;7.20;6.00;;;12.10;99.90;;;;;;5042190;28;20881;-76
2021/09/21 07:59:51;;;;;;;5.10;4.70;;;12.10;99.90;;;;;;5043169;28;20432;-77
2021/09/21 08:02:17;;;;;;;5.80;5.20;;;12.00;99.90;;;;;;5041617;28;20926;-77
2021/09/21 08:04:43;;;;;;;6.20;4.27;;;12.10;99.90;;;;;;5041899;28;20440;-77
2021/09/21 08:07:09;;;;;;;6.37;5.77;;;12.20;99.90;;;;;;5044064;28;20181;-77
2021/09/21 08:09:36;;;;;;;8.20;5.73;;;12.20;99.90;;;;;;5043615;28;20196;-77
2021/09/21 08:12:04;;;;;;;5.00;4.50;;;12.30;99.90;;;;;;5041945;28;20454;-76
2021/09/21 08:14:36;;;;;;;8.13;5.50;;;12.30;99.90;;;;;;5041677;28;20470;-77
2021/09/21 08:17:02;;;;;;;5.23;4.73;;;12.40;99.90;;;;;;5039949;28;20451;-77
2021/09/21 08:19:29;;;;;;;4.87;4.40;;;12.30;99.90;;;;;;5041011;28;20952;-77
2021/09/21 08:21:54;;;;;;;5.23;4.70;;;12.40;99.90;;;;;;5043099;28;20439;-76
2021/09/21 08:24:20;;;;;;;6.97;5.30;;;12.50;99.90;;;;;;5042618;28;20412;-76
2021/09/21 08:26:46;;;;;;;9.40;5.00;;;12.50;99.90;;;;;;5041810;28;20599;-77
2021/09/21 08:29:13;;;;;;;6.43;5.50;;;12.60;99.90;;;;;;5041280;28;20622;-77
2021/09/21 08:31:40;;;;;;;5.50;5.00;;;12.60;99.90;;;;;;5042249;28;20458;-76
2021/09/21 08:34:05;;;;;;;5.60;4.60;;;12.60;99.90;;;;;;5042236;28;20463;-77
2021/09/21 08:36:31;;;;;;;6.40;4.77;;;12.60;99.90;;;;;;5041699;28;20423;-77
2021/09/21 08:38:57;;;;;;;5.63;5.13;;;12.60;99.90;;;;;;5042425;28;20170;-76
2021/09/21 08:41:26;;;;;;;5.13;4.60;;;12.60;99.90;;;;;;5040371;28;20185;-77
2021/09/21 08:43:52;;;;;;;4.87;4.47;;;12.60;99.90;;;;;;5042418;28;20440;-77
2021/09/21 08:46:18;;;;;;;4.97;4.47;;;12.60;99.90;;;;;;5040510;28;20424;-77
2021/09/21 08:48:44;;;;;;;5.33;4.93;;;12.70;99.90;;;;;;5041775;28;20284;-77
2021/09/21 08:51:09;;;;;;;5.37;4.87;;;12.80;99.90;;;;;;5039951;28;20522;-77
2021/09/21 08:53:35;;;;;;;5.23;4.73;;;12.90;99.90;;;;;;5041702;28;20201;-77
2021/09/21 08:56:01;;;;;;;5.23;4.73;;;13.00;99.90;;;;;;5041594;28;20192;-76
2021/09/21 08:58:27;;;;;;;5.13;4.73;;;13.10;99.90;;;;;;5040967;28;20518;-77
2021/09/21 09:00:53;;;;;;;6.00;5.40;;;13.10;99.90;;;;;;5041629;28;20184;-76
2021/09/21 09:03:19;;;;;;;6.37;5.23;;;13.20;99.90;;;;;;5041499;28;20890;-77
2021/09/21 09:05:48;;;;;;;6.40;5.80;;;13.10;99.90;;;;;;5041302;28;20185;-77
2021/09/21 09:08:17;;;;;;;6.10;4.63;;;13.20;99.90;;;;;;5041217;28;20982;-77
2021/09/21 09:10:43;;;;;;;7.83;5.40;;;13.20;99.90;;;;;;5040803;28;20970;-77
2021/09/21 09:13:19;;;;;;;7.47;5.10;;;13.30;99.90;;;;;;5040112;28;20436;-77
2021/09/21 09:15:56;;;;;;;6.03;5.10;;;13.30;99.90;;;;;;5040541;28;20344;-77
2021/09/21 09:18:26;;;;;;;6.20;4.60;;;13.40;99.90;;;;;;5040781;28;20431;-77
2021/09/21 09:20:52;;;;;;;5.63;4.77;;;13.30;99.90;;;;;;5041005;28;20438;-77
2021/09/21 09:23:18;;;;;;;5.40;4.57;;;13.40;99.90;;;;;;5046284;28;20746;-77
2021/09/21 09:25:46;;;;;;;9.90;5.50;;;13.40;99.90;;;;;;5047935;28;20508;-77
2021/09/21 09:28:25;;;;;;;5.30;4.80;;;13.50;99.90;;;;;;5047497;28;20432;-77
2021/09/21 09:30:52;;;;;;;5.00;4.60;;;13.60;99.90;;;;;;5046946;28;20427;-77
2021/09/21 09:33:20;;;;;;;6.00;5.37;;;13.70;99.90;;;;;;5047939;28;20466;-76
2021/09/21 09:35:47;;;;;;;5.50;4.93;;;13.70;99.90;;;;;;5045384;28;20510;-76
2021/09/21 09:38:16;;;;;;;7.27;4.17;;;13.80;99.90;;;;;;5046292;28;20858;-77
2021/09/21 09:40:51;;;;;;;7.50;5.10;;;13.80;99.90;;;;;;5046475;28;20515;-77
2021/09/21 09:43:19;;;;;;;6.10;5.50;;;13.90;99.90;;;;;;5045097;28;20452;-76
2021/09/21 09:45:47;;;;;;;5.70;4.97;;;14.00;99.90;;;;;;5047316;28;20436;-77
2021/09/21 09:48:17;;;;;;;5.40;4.90;;;14.00;99.90;;;;;;5047083;28;21011;-77
2021/09/21 09:50:44;;;;;;;5.87;4.73;;;14.20;99.90;;;;;;5046592;28;20432;-76
2021/09/21 09:53:15;;;;;;;5.73;5.23;;;14.20;99.90;;;;;;5047699;28;20443;-76
2021/09/21 09:55:49;;;;;;;6.37;5.80;;;14.30;99.90;;;;;;5046918;28;20428;-77
2021/09/21 09:58:16;;;;;;;6.73;5.10;;;14.30;99.90;;;;;;5046989;28;20420;-77
2021/09/21 10:00:42;;;;;;;5.03;4.63;;;14.40;99.90;;;;;;5046748;28;20433;-77
2021/09/21 10:03:08;;;;;;;4.23;3.93;;;14.60;99.90;;;;;;5047267;28;20407;-77
2021/09/21 10:05:37;;;;;;;6.10;5.50;;;14.70;99.90;;;;;;5042477;28;20444;-77
2021/09/21 10:08:05;;;;;;;7.27;4.80;;;14.70;99.90;;;;;;5044441;28;20428;-77
2021/09/21 10:10:31;;;;;;;8.00;6.13;;;14.70;99.90;;;;;;5043915;28;20441;-77
2021/09/21 10:13:02;;;;;;;6.07;5.57;;;14.70;99.90;;;;;;5045097;28;20443;-77
2021/09/21 10:15:29;;;;;;;10.80;5.50;;;14.70;99.90;;;;;;5047148;28;20461;-77
2021/09/21 10:17:57;;;;;;;6.73;5.23;;;14.60;99.90;;;;;;5043786;28;20872;-77
2021/09/21 10:20:37;;;;;;;5.90;5.30;;;14.70;99.90;;;;;;5044145;28;20493;-77
2021/09/21 10:23:08;;;;;;;6.67;6.00;;;14.80;99.90;;;;;;5043228;28;20461;-77
2021/09/21 10:25:36;;;;;;;6.67;4.80;;;14.80;99.90;;;;;;5043065;28;20436;-77
2021/09/21 10:28:14;;;;;;;5.73;5.20;;;14.80;99.90;;;;;;5043350;28;20428;-77
2021/09/21 10:30:50;;;;;;;6.17;4.67;;;14.90;99.90;;;;;;5042956;28;20515;-77
2021/09/21 10:33:18;;;;;;;6.20;4.87;;;15.00;99.90;;;;;;5040132;28;20718;-77
2021/09/21 10:35:49;;;;;;;6.73;5.97;;;15.10;99.90;;;;;;5040412;28;20740;-77
2021/09/21 10:38:18;;;;;;;5.17;4.47;;;15.20;99.90;;;;;;5041882;28;20424;-77
2021/09/21 10:40:47;;;;;;;6.67;4.97;;;15.30;99.90;;;;;;5042539;28;20436;-77
2021/09/21 10:43:33;;;;;;;6.00;4.80;;;15.40;99.90;;;;;;5040603;28;20424;-77
2021/09/21 10:46:06;;;;;;;9.43;5.00;;;15.30;99.90;;;;;;5041984;28;20893;-77
2021/09/21 10:48:37;;;;;;;5.13;4.63;;;15.50;99.90;;;;;;5042482;28;20796;-77
2021/09/21 10:51:05;;;;;;;7.03;6.33;;;15.50;99.90;;;;;;5040681;28;20798;-77
2021/09/21 10:53:31;;;;;;;6.63;5.13;;;15.60;99.90;;;;;;5043615;28;20453;-77
2021/09/21 10:56:09;;;;;;;6.57;4.93;;;15.50;99.90;;;;;;5043002;28;20428;-77
2021/09/21 10:58:36;;;;;;;6.80;5.37;;;15.50;99.90;;;;;;5040918;28;20431;-77
2021/09/21 11:01:02;;;;;;;6.40;5.60;;;15.40;99.90;;;;;;5041742;28;20435;-78
2021/09/21 11:03:29;;;;;;;5.20;4.70;;;15.40;99.90;;;;;;5042601;28;20416;-78
2021/09/21 11:05:56;;;;;;;5.73;5.23;;;15.60;99.90;;;;;;5040941;28;20471;-77
2021/09/21 11:08:35;;;;;;;5.90;5.37;;;15.70;99.90;;;;;;5041831;28;20424;-77
2021/09/21 11:11:04;;;;;;;5.63;5.10;;;15.70;99.90;;;;;;5042966;28;20429;-77
2021/09/21 11:13:35;;;;;;;7.53;5.93;;;15.70;99.90;;;;;;5040902;28;20429;-77
2021/09/21 11:16:04;;;;;;;8.60;5.10;;;15.70;99.90;;;;;;5042323;28;20428;-78
2021/09/21 11:18:31;;;;;;;6.30;5.53;;;15.70;99.90;;;;;;5042338;28;20431;-77
2021/09/21 11:21:02;;;;;;;11.70;5.57;;;15.70;99.90;;;;;;5043291;28;20409;-78
2021/09/21 11:23:31;;;;;;;6.20;4.90;;;15.80;99.90;;;;;;5042030;28;20450;-77
2021/09/21 11:26:03;;;;;;;5.00;4.10;;;15.90;99.90;;;;;;5042499;28;20759;-77
2021/09/21 11:28:35;;;;;;;5.73;4.90;;;16.00;99.90;;;;;;5042754;28;20424;-78
2021/09/21 11:31:01;;;;;;;6.80;4.90;;;16.10;99.90;;;;;;5042480;28;20413;-77
2021/09/21 11:33:33;;;;;;;4.60;4.23;;;16.20;99.90;;;;;;5041615;28;20421;-77
2021/09/21 11:36:06;;;;;;;4.77;4.30;;;16.20;99.90;;;;;;5041767;28;20502;-77
2021/09/21 11:38:35;;;;;;;5.10;4.10;;;16.20;99.90;;;;;;5042350;28;20776;-77
2021/09/21 11:41:02;;;;;;;4.83;4.43;;;16.30;99.90;;;;;;5042187;28;20485;-77
2021/09/21 11:43:29;;;;;;;8.17;4.50;;;16.30;99.90;;;;;;5038627;28;20493;-77
2021/09/21 11:45:55;;;;;;;5.13;4.40;;;16.30;99.90;;;;;;5040758;28;21178;-77
2021/09/21 11:48:22;;;;;;;5.90;4.53;;;16.30;99.90;;;;;;5043509;28;20463;-78
2021/09/21 11:50:48;;;;;;;6.60;4.23;;;16.20;99.90;;;;;;5041771;28;20432;-78
2021/09/21 11:53:16;;;;;;;6.27;4.10;;;16.20;99.90;;;;;;5036618;28;20537;-78
2021/09/21 11:55:45;;;;;;;8.43;4.50;;;16.40;99.90;;;;;;5047178;28;20450;-78
2021/09/21 11:58:14;;;;;;;5.20;4.30;;;16.40;99.90;;;;;;5041068;28;20437;-78
2021/09/21 12:00:43;;;;;;;5.70;4.53;;;16.70;99.90;;;;;;5042260;28;20945;-78
2021/09/21 12:03:20;;;;;;;5.60;4.33;;;16.70;99.90;;;;;;5041448;28;20433;-79
2021/09/21 12:05:50;;;;;;;5.20;4.70;;;16.80;99.90;;;;;;5043327;28;20431;-78
2021/09/21 12:08:22;;;;;;;5.80;5.27;;;16.80;99.90;;;;;;5041008;28;20428;-78
2021/09/21 12:10:57;;;;;;;5.43;4.67;;;16.70;99.90;;;;;;5040928;28;20774;-78
2021/09/21 12:13:25;;;;;;;3.77;3.50;;;16.70;99.90;;;;;;5040844;28;20463;-79
2021/09/21 12:15:54;;;;;;;5.47;4.97;;;16.70;99.90;;;;;;5040746;28;20425;-78
2021/09/21 12:18:22;;;;;;;5.20;4.70;;;16.60;99.90;;;;;;5041948;28;20415;-78
2021/09/21 12:20:57;;;;;;;7.00;4.23;;;16.40;99.90;;;;;;5041697;28;20428;-78
2021/09/21 12:23:29;;;;;;;4.77;4.30;;;16.40;99.90;;;;;;5038015;28;20559;-78
2021/09/21 12:25:57;;;;;;;7.20;4.97;;;16.40;99.90;;;;;;5041355;28;20404;-77
2021/09/21 12:28:26;;;;;;;6.90;4.90;;;16.40;99.90;;;;;;5039090;28;20427;-77
2021/09/21 12:30:52;;;;;;;10.57;5.97;;;16.50;99.90;;;;;;5040591;28;20436;-77
2021/09/21 12:33:18;;;;;;;4.67;4.27;;;16.50;99.90;;;;;;5040520;28;20562;-77
2021/09/21 12:35:48;;;;;;;4.97;4.57;;;16.50;99.90;;;;;;5041197;28;20427;-77
2021/09/21 12:38:17;;;;;;;5.57;4.60;;;16.70;99.90;;;;;;5039480;28;20966;-77
2021/09/21 12:41:03;;;;;;;7.90;5.00;;;16.80;99.90;;;;;;5043186;28;20425;-77
2021/09/21 12:43:41;;;;;;;4.93;4.33;;;16.80;99.90;;;;;;5042002;28;22067;-77
2021/09/21 12:46:10;;;;;;;6.10;4.50;;;16.70;99.90;;;;;;5042415;28;20778;-77
2021/09/21 12:48:44;;;;;;;6.13;5.10;;;16.80;99.90;;;;;;5040624;28;20805;-77
2021/09/21 12:51:10;;;;;;;4.40;4.00;;;17.00;99.90;;;;;;5039286;28;20458;-77
2021/09/21 12:53:37;;;;;;;4.67;3.97;;;17.00;99.90;;;;;;5039327;28;20463;-77
2021/09/21 12:56:08;;;;;;;6.10;4.90;;;17.10;99.90;;;;;;5038129;28;20435;-77
2021/09/21 12:58:39;;;;;;;5.97;5.37;;;17.30;99.90;;;;;;5044231;28;20431;-76
2021/09/21 13:01:08;;;;;;;6.00;5.13;;;17.30;99.90;;;;;;5045456;28;20470;-76
2021/09/21 13:03:36;;;;;;;5.50;4.93;;;17.10;99.90;;;;;;5044384;28;20962;-76